Time;durP1;ratioP1;P1;durP2;ratioP2;P2;SDS_P1;SDS_P2;PMS_P1;PMS_P2;Temp;Humidity;BMP_temperature;BMP_pressure;BME280_temperature;BME280_humidity;BME280_pressure;Samples;Min_cycle;Max_cycle;Signal;HPM_P1;HPM_P2
2022/07/23 00:00:19;;;;;;;31.77;20.20;;;15.00;99.90;;;;;;5045352;28;20044;-75
2022/07/23 00:02:46;;;;;;;30.17;20.08;;;15.00;99.90;;;;;;5057226;28;20498;-74
2022/07/23 00:05:13;;;;;;;30.08;18.67;;;14.90;99.90;;;;;;5057429;28;20060;-74
2022/07/23 00:07:40;;;;;;;28.40;19.65;;;14.90;99.90;;;;;;5056384;28;20094;-74
2022/07/23 00:10:08;;;;;;;27.58;17.45;;;14.90;99.90;;;;;;5047239;28;20152;-75
2022/07/23 00:12:35;;;;;;;29.92;20.75;;;15.00;99.90;;;;;;5061619;28;20113;-75
2022/07/23 00:15:02;;;;;;;28.60;18.95;;;14.80;99.90;;;;;;5041088;28;20478;-75
2022/07/23 00:17:29;;;;;;;29.35;19.63;;;14.70;99.90;;;;;;5036596;28;20464;-75
2022/07/23 00:19:56;;;;;;;29.10;18.55;;;14.70;99.90;;;;;;5056429;28;20044;-75
2022/07/23 00:22:23;;;;;;;27.05;18.85;;;14.70;99.90;;;;;;5034911;28;20086;-75
2022/07/23 00:24:50;;;;;;;33.45;18.42;;;14.70;99.90;;;;;;5056932;28;20525;-75
2022/07/23 00:27:37;;;;;;;27.65;20.02;;;14.70;99.90;;;;;;5037269;28;20802;-73
2022/07/23 00:30:04;;;;;;;30.77;19.77;;;14.90;99.90;;;;;;5057920;28;20060;-74
2022/07/23 00:32:31;;;;;;;29.38;19.83;;;14.80;99.90;;;;;;5052462;28;20068;-73
2022/07/23 00:35:20;;;;;;;34.22;20.42;;;14.90;99.90;;;;;;5040836;28;20460;-74
2022/07/23 00:37:48;;;;;;;36.25;20.05;;;14.90;99.90;;;;;;5039968;28;20044;-72
2022/07/23 00:40:15;;;;;;;35.58;22.02;;;14.70;99.90;;;;;;5038746;28;20057;-73
2022/07/23 00:42:42;;;;;;;37.95;20.90;;;14.60;99.90;;;;;;5063930;22;20048;-74
2022/07/23 00:45:09;;;;;;;33.95;20.73;;;14.50;99.90;;;;;;5065970;28;20032;-74
2022/07/23 00:47:37;;;;;;;32.20;19.80;;;14.40;99.90;;;;;;5071519;28;20055;-74
2022/07/23 00:50:06;;;;;;;36.35;20.90;;;14.40;99.90;;;;;;5047826;28;20452;-75
2022/07/23 00:52:34;;;;;;;38.53;21.38;;;14.40;99.90;;;;;;5070308;28;20089;-74
2022/07/23 00:55:01;;;;;;;36.15;21.83;;;14.50;99.90;;;;;;5039050;28;20064;-75
2022/07/23 00:57:27;;;;;;;35.45;21.80;;;14.60;99.90;;;;;;5051114;28;20317;-75
2022/07/23 00:59:55;;;;;;;33.50;21.73;;;14.60;99.90;;;;;;5042332;28;20056;-74
2022/07/23 01:02:22;;;;;;;43.10;24.60;;;14.70;99.90;;;;;;5049805;28;20516;-75
2022/07/23 01:04:48;;;;;;;34.83;22.45;;;14.80;99.90;;;;;;5047239;28;20083;-74
2022/07/23 01:07:16;;;;;;;35.03;22.35;;;14.80;99.90;;;;;;5045168;28;20498;-75
2022/07/23 01:09:44;;;;;;;36.83;24.30;;;14.80;99.90;;;;;;5048968;28;20041;-75
2022/07/23 01:12:12;;;;;;;33.85;22.42;;;14.70;99.90;;;;;;5043045;28;20033;-74
2022/07/23 01:14:39;;;;;;;38.22;22.50;;;14.70;99.90;;;;;;5049522;28;20120;-75
2022/07/23 01:17:05;;;;;;;31.88;22.30;;;14.70;99.90;;;;;;5042898;28;20047;-75
2022/07/23 01:19:32;;;;;;;36.83;23.27;;;14.70;99.90;;;;;;5048895;28;20226;-74
2022/07/23 01:22:02;;;;;;;36.13;23.25;;;14.80;99.90;;;;;;5049593;28;20049;-74
2022/07/23 01:24:29;;;;;;;37.25;22.98;;;14.80;99.90;;;;;;5049303;28;20284;-74
2022/07/23 01:26:59;;;;;;;44.38;24.05;;;14.80;99.90;;;;;;5040336;28;20111;-74
2022/07/23 01:29:26;;;;;;;40.83;23.20;;;14.90;99.90;;;;;;5044296;28;20546;-75
2022/07/23 01:31:54;;;;;;;35.55;23.98;;;14.90;99.90;;;;;;5039391;28;20511;-74
2022/07/23 01:34:21;;;;;;;44.75;25.58;;;15.00;99.90;;;;;;5044996;28;20037;-75
2022/07/23 01:36:48;;;;;;;47.75;23.20;;;15.00;99.90;;;;;;5048803;28;20540;-74
2022/07/23 01:39:16;;;;;;;48.30;23.52;;;14.90;99.90;;;;;;5036721;28;20557;-74
2022/07/23 01:41:43;;;;;;;38.25;21.50;;;15.00;99.90;;;;;;5045815;28;20252;-74
2022/07/23 01:44:15;;;;;;;47.83;23.08;;;15.10;99.90;;;;;;5040253;28;20048;-74
2022/07/23 01:46:43;;;;;;;50.33;21.90;;;15.10;99.90;;;;;;5031836;28;20040;-75
2022/07/23 01:49:10;;;;;;;42.13;22.80;;;15.20;99.90;;;;;;5029958;28;20049;-74
2022/07/23 01:52:01;;;;;;;34.47;22.75;;;15.20;99.90;;;;;;5048938;28;20072;-74
2022/07/23 01:54:34;;;;;;;51.60;23.80;;;15.20;99.90;;;;;;5036544;28;20170;-75
2022/07/23 01:57:04;;;;;;;46.13;24.25;;;15.20;99.90;;;;;;5048900;28;20044;-74
2022/07/23 01:59:31;;;;;;;48.28;24.45;;;15.10;99.90;;;;;;5055145;28;20490;-75
2022/07/23 02:01:58;;;;;;;42.42;23.75;;;15.10;99.90;;;;;;5038560;28;20079;-75
2022/07/23 02:04:25;;;;;;;39.42;24.27;;;15.10;99.90;;;;;;5054908;28;20040;-75
2022/07/23 02:06:53;;;;;;;54.38;25.55;;;15.10;99.90;;;;;;5027812;28;20373;-75
2022/07/23 02:09:20;;;;;;;42.83;26.42;;;15.10;99.90;;;;;;5053676;28;20534;-75
2022/07/23 02:11:47;;;;;;;45.72;25.83;;;15.20;99.90;;;;;;5056229;28;20068;-75
2022/07/23 02:14:14;;;;;;;50.05;26.35;;;15.30;99.90;;;;;;5047818;28;20044;-75
2022/07/23 02:16:41;;;;;;;47.08;26.95;;;15.10;99.90;;;;;;5053581;28;20168;-75
2022/07/23 02:19:07;;;;;;;49.63;26.45;;;15.10;99.90;;;;;;5041112;28;20172;-75
2022/07/23 02:21:36;;;;;;;47.33;25.83;;;15.10;99.90;;;;;;5050314;28;20474;-75
2022/07/23 02:24:04;;;;;;;42.13;26.15;;;15.00;99.90;;;;;;5052137;28;20119;-74
2022/07/23 02:26:34;;;;;;;50.47;26.25;;;14.90;99.90;;;;;;5034371;28;20122;-74
2022/07/23 02:29:04;;;;;;;56.88;26.67;;;14.80;99.90;;;;;;5037692;28;20053;-75
2022/07/23 02:31:32;;;;;;;49.40;28.13;;;14.80;99.90;;;;;;5048316;28;20566;-76
2022/07/23 02:33:59;;;;;;;51.97;27.65;;;14.70;99.90;;;;;;5056830;28;20304;-75
2022/07/23 02:36:26;;;;;;;56.42;28.10;;;14.70;99.90;;;;;;5037897;28;20048;-76
2022/07/23 02:38:53;;;;;;;54.53;28.60;;;14.70;99.90;;;;;;5045985;28;20045;-77
2022/07/23 02:41:20;;;;;;;61.95;29.48;;;14.50;99.90;;;;;;5053075;28;20044;-77
2022/07/23 02:43:47;;;;;;;58.28;29.20;;;14.40;99.90;;;;;;5053404;28;20435;-75
2022/07/23 02:46:15;;;;;;;65.90;33.50;;;14.50;99.90;;;;;;5030527;28;20044;-76
2022/07/23 02:48:42;;;;;;;71.93;33.35;;;14.60;99.90;;;;;;5051279;28;20041;-76
2022/07/23 02:51:09;;;;;;;72.28;34.35;;;14.70;99.90;;;;;;5053190;28;20060;-75
2022/07/23 02:53:45;;;;;;;61.42;32.15;;;14.70;99.90;;;;;;5051182;28;20060;-75
2022/07/23 02:56:11;;;;;;;67.00;32.30;;;14.80;99.90;;;;;;5050931;28;20052;-75
2022/07/23 02:58:41;;;;;;;63.08;32.42;;;14.80;99.90;;;;;;5037688;28;20451;-75
2022/07/23 03:01:08;;;;;;;68.38;31.75;;;14.80;99.90;;;;;;5036053;28;20101;-74
2022/07/23 03:03:35;;;;;;;75.97;35.97;;;14.80;99.90;;;;;;5048654;28;20115;-76
2022/07/23 03:06:02;;;;;;;74.65;35.47;;;14.80;99.90;;;;;;5044131;28;20490;-74
2022/07/23 03:08:29;;;;;;;70.40;32.45;;;14.70;99.90;;;;;;5052384;28;20681;-75
2022/07/23 03:10:56;;;;;;;72.90;34.17;;;14.70;99.90;;;;;;5034738;28;20068;-75
2022/07/23 03:13:23;;;;;;;86.90;35.80;;;14.80;99.90;;;;;;5032692;28;20470;-75
2022/07/23 03:15:51;;;;;;;88.05;36.97;;;14.80;99.90;;;;;;5052076;28;20048;-75
2022/07/23 03:18:18;;;;;;;80.70;37.03;;;14.80;99.90;;;;;;5039992;28;20614;-76
2022/07/23 03:20:45;;;;;;;79.20;35.00;;;14.80;99.90;;;;;;5052425;28;20056;-75
2022/07/23 03:23:11;;;;;;;78.47;34.20;;;14.90;99.90;;;;;;5047506;28;20044;-75
2022/07/23 03:25:38;;;;;;;62.88;32.42;;;14.90;99.90;;;;;;5051139;28;20045;-75
2022/07/23 03:28:05;;;;;;;77.18;35.47;;;14.90;99.90;;;;;;5036033;28;20218;-74
2022/07/23 03:30:32;;;;;;;69.32;33.47;;;14.90;99.90;;;;;;5049030;28;20688;-73
2022/07/23 03:32:58;;;;;;;87.70;37.05;;;14.80;99.90;;;;;;5052141;28;20399;-73
2022/07/23 03:35:25;;;;;;;84.18;36.58;;;14.80;99.90;;;;;;5052291;28;20699;-74
2022/07/23 03:38:15;;;;;;;76.95;36.88;;;14.80;99.90;;;;;;5048383;28;20040;-73
2022/07/23 03:40:42;;;;;;;90.28;38.90;;;14.70;99.90;;;;;;5050761;28;20257;-72
2022/07/23 03:43:09;;;;;;;102.93;40.80;;;14.50;99.90;;;;;;5053312;28;20044;-73
2022/07/23 03:45:35;;;;;;;116.55;41.00;;;14.50;99.90;;;;;;5040979;28;20718;-73
2022/07/23 03:48:03;;;;;;;114.72;42.03;;;14.50;99.90;;;;;;5030189;28;20481;-73
2022/07/23 03:50:30;;;;;;;87.32;38.28;;;14.70;99.90;;;;;;5050787;28;20480;-73
2022/07/23 03:52:57;;;;;;;90.57;38.70;;;14.70;99.90;;;;;;5045220;28;20117;-73
2022/07/23 03:55:23;;;;;;;100.25;40.65;;;14.70;99.90;;;;;;5051841;28;20572;-73
2022/07/23 03:57:50;;;;;;;106.60;41.08;;;14.50;99.90;;;;;;5035914;28;20788;-73
2022/07/23 04:00:17;;;;;;;102.03;38.45;;;14.50;99.90;;;;;;5051108;28;20088;-71
2022/07/23 04:02:49;;;;;;;95.07;39.72;;;14.50;99.90;;;;;;5051775;28;20210;-75
2022/07/23 04:05:17;;;;;;;91.57;38.83;;;14.50;99.90;;;;;;5048037;28;20036;-72
2022/07/23 04:07:47;;;;;;;98.80;41.50;;;14.40;99.90;;;;;;5049829;28;20438;-71
2022/07/23 04:10:15;;;;;;;106.78;42.55;;;14.50;99.90;;;;;;5058104;28;20526;-73
2022/07/23 04:12:41;;;;;;;106.35;41.15;;;14.60;99.90;;;;;;5035819;28;20151;-72
2022/07/23 04:15:09;;;;;;;127.82;42.45;;;14.60;99.90;;;;;;5045772;28;20117;-73
2022/07/23 04:17:36;;;;;;;108.72;42.88;;;14.60;99.90;;;;;;5051482;28;20037;-72
2022/07/23 04:20:03;;;;;;;102.22;43.50;;;14.50;99.90;;;;;;5029723;28;20040;-73
2022/07/23 04:22:36;;;;;;;108.50;45.40;;;14.50;99.90;;;;;;5035640;28;20056;-72
2022/07/23 04:25:03;;;;;;;119.15;44.38;;;14.40;99.90;;;;;;5045778;28;20139;-72
2022/07/23 04:27:33;;;;;;;111.43;43.30;;;14.30;99.90;;;;;;5034587;28;20079;-73
2022/07/23 04:30:00;;;;;;;133.95;45.63;;;14.30;99.90;;;;;;5041735;28;20056;-73
2022/07/23 04:32:26;;;;;;;114.93;42.45;;;14.30;99.90;;;;;;5046963;28;20040;-74
2022/07/23 04:34:54;;;;;;;93.15;41.15;;;14.30;99.90;;;;;;5042666;28;20040;-75
2022/07/23 04:37:20;;;;;;;113.13;44.60;;;14.20;99.90;;;;;;5041993;28;20056;-72
2022/07/23 04:39:47;;;;;;;106.93;47.20;;;14.20;99.90;;;;;;5048903;28;20076;-73
2022/07/23 04:42:14;;;;;;;102.32;44.67;;;14.10;99.90;;;;;;5036395;28;20265;-74
2022/07/23 04:44:41;;;;;;;119.90;48.25;;;14.00;99.90;;;;;;5039324;28;20068;-73
2022/07/23 04:47:08;;;;;;;102.25;44.63;;;14.00;99.90;;;;;;5049959;28;20102;-73
2022/07/23 04:49:35;;;;;;;111.13;45.15;;;14.00;99.90;;;;;;5031980;28;20442;-73
2022/07/23 04:52:02;;;;;;;103.05;43.05;;;13.90;99.90;;;;;;5059243;28;20258;-73
2022/07/23 04:54:29;;;;;;;100.55;44.53;;;14.00;99.90;;;;;;5032781;28;20059;-73
2022/07/23 04:56:56;;;;;;;101.75;44.33;;;14.10;99.90;;;;;;5019505;28;20167;-73
2022/07/23 04:59:23;;;;;;;100.32;44.45;;;14.20;99.90;;;;;;5048672;28;20567;-73
2022/07/23 05:01:55;;;;;;;90.72;41.58;;;14.30;99.90;;;;;;5031925;28;20289;-73
2022/07/23 05:04:23;;;;;;;92.60;41.80;;;14.50;99.90;;;;;;5047132;28;20737;-73
2022/07/23 05:06:50;;;;;;;98.20;43.88;;;14.50;99.90;;;;;;5047730;28;20076;-73
2022/07/23 05:09:16;;;;;;;89.68;41.83;;;14.60;99.90;;;;;;5052762;28;20037;-73
2022/07/23 05:11:44;;;;;;;85.57;42.35;;;14.80;99.90;;;;;;5034835;28;20064;-73
2022/07/23 05:14:12;;;;;;;83.25;41.08;;;14.90;99.90;;;;;;5040930;28;20028;-73
2022/07/23 05:16:39;;;;;;;57.50;36.17;;;15.00;99.90;;;;;;5048846;28;20119;-73
2022/07/23 05:19:12;;;;;;;72.72;37.55;;;15.40;99.90;;;;;;5039266;28;20040;-73
2022/07/23 05:21:39;;;;;;;56.28;35.42;;;15.50;99.90;;;;;;5047035;28;20147;-73
2022/07/23 05:24:06;;;;;;;48.15;32.95;;;15.60;99.90;;;;;;5041019;28;20594;-73
2022/07/23 05:26:33;;;;;;;50.35;32.60;;;15.90;99.90;;;;;;5044166;28;20461;-73
2022/07/23 05:29:02;;;;;;;36.05;27.02;;;16.10;99.90;;;;;;5041780;28;20064;-73
2022/07/23 05:31:29;;;;;;;44.25;29.75;;;16.30;99.90;;;;;;5044976;28;20103;-73
2022/07/23 05:33:56;;;;;;;38.25;29.15;;;16.50;99.90;;;;;;5040276;28;20040;-72
2022/07/23 05:36:23;;;;;;;42.47;30.58;;;16.50;99.90;;;;;;5044690;28;20163;-73
2022/07/23 05:38:53;;;;;;;33.60;29.98;;;16.80;99.90;;;;;;5041613;28;20041;-73
2022/07/23 05:41:22;;;;;;;37.88;29.70;;;16.90;99.90;;;;;;5045938;28;20041;-73
2022/07/23 05:43:48;;;;;;;32.60;28.63;;;17.00;99.90;;;;;;5030113;28;20052;-73
2022/07/23 05:46:15;;;;;;;32.67;29.48;;;17.10;99.90;;;;;;5033093;28;20152;-73
2022/07/23 05:48:49;;;;;;;35.42;31.10;;;17.30;99.90;;;;;;5048227;28;20311;-73
2022/07/23 05:51:39;;;;;;;34.95;31.33;;;17.60;99.90;;;;;;5035314;28;20049;-73
2022/07/23 05:54:06;;;;;;;34.05;30.52;;;17.70;99.90;;;;;;5027452;28;20119;-73
2022/07/23 05:56:36;;;;;;;30.63;27.40;;;17.90;99.90;;;;;;5025152;28;20235;-73
2022/07/23 05:59:03;;;;;;;32.70;29.17;;;17.90;99.90;;;;;;5043314;28;20053;-73
2022/07/23 06:01:31;;;;;;;33.20;29.77;;;18.10;99.90;;;;;;5045258;28;20052;-73
2022/07/23 06:04:09;;;;;;;29.35;26.80;;;18.00;99.90;;;;;;5049581;28;20142;-73
2022/07/23 06:06:41;;;;;;;32.17;28.88;;;18.10;99.90;;;;;;5033957;28;20057;-73
2022/07/23 06:09:13;;;;;;;30.20;27.23;;;18.30;99.90;;;;;;5026149;28;20121;-73
2022/07/23 06:11:40;;;;;;;30.10;27.40;;;18.20;99.90;;;;;;5063967;28;20052;-73
2022/07/23 06:14:07;;;;;;;27.90;25.25;;;18.10;99.90;;;;;;5047317;28;21119;-73
2022/07/23 06:16:53;;;;;;;29.02;26.48;;;18.00;99.90;;;;;;5046269;28;20067;-73
2022/07/23 06:19:21;;;;;;;29.67;26.85;;;17.90;99.90;;;;;;5033079;28;20043;-73
2022/07/23 06:21:48;;;;;;;33.13;29.67;;;17.80;99.90;;;;;;5031903;28;20717;-73
2022/07/23 06:24:16;;;;;;;30.33;27.45;;;18.00;99.90;;;;;;5043526;28;20103;-73
2022/07/23 06:26:43;;;;;;;28.55;25.95;;;18.10;99.90;;;;;;5042294;28;20473;-73
2022/07/23 06:29:10;;;;;;;28.42;25.80;;;18.20;99.90;;;;;;5044688;28;20243;-73
2022/07/23 06:31:37;;;;;;;29.13;26.42;;;18.40;99.90;;;;;;5045775;28;20625;-73
2022/07/23 06:34:04;;;;;;;29.45;26.95;;;18.30;99.90;;;;;;5043849;28;20140;-73
2022/07/23 06:36:31;;;;;;;28.55;26.02;;;18.30;99.90;;;;;;5034333;28;20253;-73
2022/07/23 06:38:57;;;;;;;28.33;25.98;;;18.30;99.90;;;;;;5025001;28;20049;-73
2022/07/23 06:41:25;;;;;;;27.42;25.13;;;18.50;99.90;;;;;;5050348;28;20040;-73
2022/07/23 06:43:52;;;;;;;28.20;25.60;;;18.30;99.90;;;;;;5082775;22;20125;-76
2022/07/23 06:46:21;;;;;;;26.88;24.48;;;18.40;99.90;;;;;;5036414;28;20085;-76
2022/07/23 06:48:49;;;;;;;26.67;24.30;;;18.60;99.90;;;;;;5051443;28;20445;-77
2022/07/23 06:51:16;;;;;;;28.00;25.50;;;19.00;99.90;;;;;;5055504;28;20040;-76
2022/07/23 06:53:43;;;;;;;29.10;26.63;;;19.20;99.90;;;;;;5053684;28;20735;-76
2022/07/23 06:56:10;;;;;;;29.70;27.08;;;19.30;99.90;;;;;;5041212;28;20075;-77
2022/07/23 06:58:38;;;;;;;28.88;26.67;;;19.40;99.90;;;;;;5048682;28;20081;-76
2022/07/23 07:01:05;;;;;;;28.75;25.75;;;19.50;99.90;;;;;;5056196;28;20063;-77
2022/07/23 07:03:32;;;;;;;26.73;24.50;;;19.80;99.90;;;;;;5035214;28;20128;-76
2022/07/23 07:05:59;;;;;;;28.80;26.45;;;19.80;99.90;;;;;;5046759;28;20537;-76
2022/07/23 07:08:26;;;;;;;27.50;25.30;;;19.60;99.90;;;;;;5067176;28;20048;-76
2022/07/23 07:10:53;;;;;;;28.17;25.65;;;19.40;99.90;;;;;;5066078;28;20511;-76
2022/07/23 07:13:19;;;;;;;32.13;29.17;;;19.20;99.90;;;;;;5069398;28;20044;-77
2022/07/23 07:15:46;;;;;;;29.75;27.30;;;18.90;99.90;;;;;;5073245;28;20112;-74
2022/07/23 07:18:13;;;;;;;27.63;25.23;;;18.90;99.90;;;;;;5065009;28;20295;-74
2022/07/23 07:20:40;;;;;;;26.63;24.20;;;19.00;99.90;;;;;;5051417;28;20040;-74
2022/07/23 07:23:07;;;;;;;27.48;25.10;;;19.10;99.90;;;;;;5048993;28;20191;-74
2022/07/23 07:25:34;;;;;;;26.92;24.70;;;19.10;99.90;;;;;;5066498;28;20154;-74
2022/07/23 07:28:01;;;;;;;30.38;27.60;;;19.10;99.90;;;;;;5063082;28;20425;-74
2022/07/23 07:30:27;;;;;;;28.33;26.02;;;18.90;99.90;;;;;;5048125;28;20250;-75
2022/07/23 07:33:00;;;;;;;29.98;27.15;;;18.60;99.90;;;;;;5042432;28;20041;-74
2022/07/23 07:35:27;;;;;;;28.95;26.35;;;18.70;99.90;;;;;;5034257;28;20044;-75
2022/07/23 07:37:53;;;;;;;28.65;26.25;;;18.80;99.90;;;;;;5063740;28;20088;-74
2022/07/23 07:40:21;;;;;;;28.35;25.85;;;18.90;99.90;;;;;;5044874;28;20087;-75
2022/07/23 07:42:51;;;;;;;28.23;25.95;;;19.10;99.90;;;;;;5051888;28;20059;-75
2022/07/23 07:45:20;;;;;;;29.73;27.25;;;18.90;99.90;;;;;;5052148;28;20105;-75
2022/07/23 07:47:47;;;;;;;29.77;26.95;;;18.70;99.90;;;;;;5066491;28;20101;-75
2022/07/23 07:50:14;;;;;;;28.85;26.23;;;19.00;99.90;;;;;;5069291;28;20485;-75
2022/07/23 07:52:41;;;;;;;28.20;25.58;;;19.30;99.90;;;;;;5059909;28;20108;-77
2022/07/23 07:55:09;;;;;;;28.95;26.48;;;19.50;99.90;;;;;;5078872;28;20040;-77
2022/07/23 07:57:37;;;;;;;28.58;26.13;;;19.30;99.90;;;;;;5084287;28;20106;-75
2022/07/23 08:00:09;;;;;;;28.48;26.10;;;19.00;99.90;;;;;;5095229;28;20773;-75
2022/07/23 08:02:53;;;;;;;27.20;24.90;;;19.10;99.90;;;;;;5069714;28;20032;-75
2022/07/23 08:05:25;;;;;;;26.58;24.33;;;19.60;99.90;;;;;;5088771;28;20055;-75
2022/07/23 08:07:55;;;;;;;28.98;26.55;;;19.70;99.90;;;;;;5073478;28;20035;-76
2022/07/23 08:10:23;;;;;;;28.38;26.20;;;19.40;99.90;;;;;;5073345;28;20045;-75
2022/07/23 08:12:53;;;;;;;27.55;25.38;;;19.40;99.90;;;;;;5061051;28;20093;-75
2022/07/23 08:15:21;;;;;;;30.17;27.45;;;19.60;99.90;;;;;;5069005;28;20489;-76
2022/07/23 08:17:49;;;;;;;28.25;25.95;;;19.60;99.90;;;;;;5070378;28;20044;-76
2022/07/23 08:20:18;;;;;;;29.08;26.58;;;19.60;99.90;;;;;;5066507;28;20045;-75
2022/07/23 08:22:49;;;;;;;27.92;25.65;;;20.00;99.90;;;;;;5063671;28;20062;-75
2022/07/23 08:25:40;;;;;;;27.88;25.23;;;19.90;99.90;;;;;;5067779;28;20387;-76
2022/07/23 08:28:10;;;;;;;28.10;26.05;;;19.50;99.90;;;;;;5064753;28;20056;-76
2022/07/23 08:30:38;;;;;;;27.02;25.02;;;19.60;99.90;;;;;;5065846;28;20804;-76
2022/07/23 08:33:13;;;;;;;28.80;26.45;;;19.90;99.90;;;;;;5061268;28;20047;-77
2022/07/23 08:36:02;;;;;;;27.70;25.63;;;20.30;99.90;;;;;;5048795;28;20093;-76
2022/07/23 08:38:29;;;;;;;28.08;25.92;;;20.50;99.90;;;;;;5057710;28;20040;-77
2022/07/23 08:40:59;;;;;;;28.15;25.98;;;20.30;99.90;;;;;;5065469;28;20036;-77
2022/07/23 08:43:29;;;;;;;28.13;26.00;;;20.00;99.90;;;;;;5064104;28;20049;-75
2022/07/23 08:45:58;;;;;;;28.40;26.50;;;19.60;99.90;;;;;;5060470;28;20387;-76
2022/07/23 08:48:31;;;;;;;27.20;25.10;;;19.70;99.90;;;;;;5045355;28;20051;-76
2022/07/23 08:51:02;;;;;;;27.67;25.17;;;20.00;99.90;;;;;;5049576;28;20630;-76
2022/07/23 08:53:30;;;;;;;26.65;24.42;;;20.40;99.90;;;;;;5062853;28;20140;-76
2022/07/23 08:56:01;;;;;;;27.50;25.58;;;20.20;99.90;;;;;;5062041;28;20072;-78
2022/07/23 08:58:28;;;;;;;30.17;27.77;;;20.10;99.90;;;;;;5032949;28;20050;-77
2022/07/23 09:00:56;;;;;;;28.90;27.02;;;20.10;99.90;;;;;;5057828;28;20041;-77
2022/07/23 09:03:29;;;;;;;26.98;24.98;;;20.20;99.90;;;;;;5060416;28;20044;-77
2022/07/23 09:05:57;;;;;;;27.23;25.23;;;20.10;99.90;;;;;;5034050;28;20052;-76
2022/07/23 09:08:33;;;;;;;27.52;25.42;;;20.30;99.90;;;;;;5059482;28;20094;-76
2022/07/23 09:11:02;;;;;;;26.23;24.45;;;20.60;99.90;;;;;;5065868;28;20124;-76
2022/07/23 09:13:49;;;;;;;26.95;24.98;;;20.70;99.90;;;;;;5059310;28;20444;-77
2022/07/23 09:16:25;;;;;;;26.23;24.20;;;20.80;99.90;;;;;;5037945;28;20068;-76
2022/07/23 09:18:54;;;;;;;27.10;24.92;;;20.60;99.90;;;;;;5058722;28;20048;-76
2022/07/23 09:21:24;;;;;;;26.73;24.73;;;20.40;99.90;;;;;;5042393;28;20418;-76
2022/07/23 09:24:02;;;;;;;28.45;26.17;;;20.20;99.90;;;;;;5027883;28;20480;-76
2022/07/23 09:26:41;;;;;;;27.08;25.10;;;20.10;99.90;;;;;;5062722;28;20315;-77
2022/07/23 09:29:11;;;;;;;28.55;26.63;;;20.40;99.90;;;;;;5058883;28;20632;-76
2022/07/23 09:31:47;;;;;;;26.65;24.75;;;21.00;99.90;;;;;;5045596;28;20460;-76
2022/07/23 09:34:17;;;;;;;26.90;25.13;;;21.70;99.90;;;;;;5046782;28;20052;-76
2022/07/23 09:36:45;;;;;;;26.40;24.50;;;22.00;99.90;;;;;;5064223;28;20105;-76
2022/07/23 09:39:14;;;;;;;28.63;26.40;;;22.00;99.90;;;;;;5052471;28;20052;-76
2022/07/23 09:41:43;;;;;;;27.77;25.95;;;21.90;99.90;;;;;;5047465;28;20482;-76
2022/07/23 09:44:16;;;;;;;28.63;26.42;;;22.30;99.90;;;;;;5064515;28;20106;-76
2022/07/23 09:46:48;;;;;;;24.50;22.90;;;22.50;99.90;;;;;;5066224;28;20413;-76
2022/07/23 09:49:22;;;;;;;26.73;24.77;;;22.80;99.90;;;;;;5045035;28;20047;-76
2022/07/23 09:51:57;;;;;;;26.83;24.70;;;22.70;99.90;;;;;;5065898;28;20573;-76
2022/07/23 09:54:38;;;;;;;29.08;26.95;;;22.30;99.90;;;;;;5048059;28;20756;-75
2022/07/23 09:57:14;;;;;;;26.70;24.83;;;21.70;99.90;;;;;;5030126;28;20144;-76
2022/07/23 09:59:43;;;;;;;27.17;25.33;;;21.90;99.90;;;;;;5058161;28;20158;-76
2022/07/23 10:02:12;;;;;;;28.48;26.25;;;21.90;99.90;;;;;;5044069;28;20464;-76
2022/07/23 10:04:55;;;;;;;27.08;25.00;;;22.20;99.90;;;;;;5040353;28;20044;-77
2022/07/23 10:07:33;;;;;;;25.73;23.92;;;22.70;99.90;;;;;;5048775;28;20127;-77
2022/07/23 10:10:21;;;;;;;26.95;24.73;;;22.90;99.90;;;;;;5066515;28;20093;-77
2022/07/23 10:15:48;;;;;;;26.08;24.27;;;22.20;99.90;;;;;;5044551;28;20102;-76
2022/07/23 10:18:15;;;;;;;27.15;25.10;;;22.00;99.90;;;;;;5040811;28;20033;-76
2022/07/23 10:20:43;;;;;;;28.20;26.38;;;21.70;99.90;;;;;;5047718;28;20047;-76
2022/07/23 10:23:22;;;;;;;26.95;25.17;;;21.90;99.90;;;;;;5052612;28;20121;-77
2022/07/23 10:26:03;;;;;;;26.60;24.77;;;22.10;99.90;;;;;;5064998;28;20044;-77
2022/07/23 10:28:41;;;;;;;26.50;24.80;;;22.50;99.90;;;;;;5063305;28;20174;-76
2022/07/23 10:31:50;;;;;;;26.13;24.30;;;22.60;99.90;;;;;;5059146;28;20094;-77
2022/07/23 10:34:29;;;;;;;26.25;24.45;;;23.00;99.90;;;;;;5044648;28;20170;-77
2022/07/23 10:37:05;;;;;;;27.15;25.17;;;23.00;99.90;;;;;;5034151;28;20486;-76
2022/07/23 10:39:33;;;;;;;27.30;25.45;;;23.00;99.90;;;;;;5042115;28;20044;-76
2022/07/23 10:42:17;;;;;;;26.92;25.17;;;23.20;99.90;;;;;;5060992;28;20040;-77
2022/07/23 10:44:47;;;;;;;27.77;25.88;;;23.20;99.90;;;;;;5056798;28;20044;-77
2022/07/23 10:50:17;;;;;;;27.20;25.38;;;22.70;99.90;;;;;;5065487;28;20048;-77
2022/07/23 10:53:06;;;;;;;26.80;24.88;;;23.00;99.90;;;;;;5052018;28;20056;-78
2022/07/23 10:55:33;;;;;;;26.42;24.33;;;23.00;99.90;;;;;;5041086;28;20040;-78
2022/07/23 10:58:02;;;;;;;26.90;24.92;;;23.00;99.90;;;;;;5047052;28;20036;-76
2022/07/23 11:00:34;;;;;;;27.50;25.55;;;23.00;99.90;;;;;;5044999;28;20106;-76
2022/07/23 11:03:29;;;;;;;29.10;27.15;;;23.00;99.90;;;;;;5044338;28;20376;-77
2022/07/23 11:05:56;;;;;;;26.63;24.77;;;22.90;99.90;;;;;;5062196;28;20234;-77
2022/07/23 11:08:22;;;;;;;26.40;24.45;;;22.90;99.90;;;;;;5070073;28;20291;-77
2022/07/23 11:11:00;;;;;;;26.73;24.58;;;22.50;99.90;;;;;;5050192;28;20164;-77
2022/07/23 11:13:30;;;;;;;27.77;25.92;;;22.50;99.90;;;;;;5062447;28;20480;-77
2022/07/23 11:16:23;;;;;;;28.17;26.23;;;22.70;99.90;;;;;;5063956;28;20040;-75
2022/07/23 11:18:55;;;;;;;27.33;25.15;;;22.70;99.90;;;;;;5058805;28;20564;-75
2022/07/23 11:21:31;;;;;;;27.75;25.63;;;22.90;99.90;;;;;;5042429;28;20048;-75
2022/07/23 11:24:13;;;;;;;26.85;24.95;;;23.20;99.90;;;;;;5062848;28;20049;-75
2022/07/23 11:26:55;;;;;;;27.98;26.15;;;22.80;99.90;;;;;;5043912;28;20059;-75
2022/07/23 11:29:25;;;;;;;28.60;26.70;;;22.80;99.90;;;;;;5061371;28;20102;-76
2022/07/23 11:31:59;;;;;;;27.58;25.77;;;22.80;99.90;;;;;;5035656;28;20052;-76
2022/07/23 11:34:39;;;;;;;27.38;25.73;;;22.70;99.90;;;;;;5049416;28;20096;-75
2022/07/23 11:37:11;;;;;;;28.55;26.50;;;23.20;99.90;;;;;;5036348;28;20134;-75
2022/07/23 11:39:39;;;;;;;28.17;26.40;;;23.40;99.90;;;;;;5051674;28;20442;-76
2022/07/23 11:42:07;;;;;;;27.48;25.60;;;22.90;99.90;;;;;;5044231;28;20032;-75
2022/07/23 11:44:38;;;;;;;27.73;25.70;;;23.00;99.90;;;;;;5042324;28;20345;-76
2022/07/23 11:47:07;;;;;;;28.83;26.83;;;23.30;99.90;;;;;;5047984;28;20170;-75
2022/07/23 11:49:35;;;;;;;28.73;26.60;;;23.50;99.90;;;;;;5067678;28;20492;-76
2022/07/23 11:52:11;;;;;;;29.08;27.17;;;23.40;99.90;;;;;;5065295;28;20402;-77
2022/07/23 11:55:03;;;;;;;26.15;24.45;;;23.30;99.90;;;;;;5045656;28;20502;-77
2022/07/23 11:57:39;;;;;;;27.52;25.75;;;23.40;99.90;;;;;;5043116;28;20130;-77
2022/07/23 12:00:06;;;;;;;26.88;25.15;;;23.50;99.90;;;;;;5044619;28;20444;-77
2022/07/23 12:02:51;;;;;;;28.90;26.88;;;23.50;99.90;;;;;;5044773;28;20667;-77
2022/07/23 12:05:21;;;;;;;27.67;25.77;;;23.60;99.90;;;;;;5047775;28;20052;-77
2022/07/23 12:07:50;;;;;;;26.58;24.88;;;23.60;99.90;;;;;;5067580;28;20454;-77
2022/07/23 12:10:21;;;;;;;26.95;25.15;;;23.80;99.90;;;;;;5068316;28;20047;-78
2022/07/23 12:12:53;;;;;;;25.85;24.15;;;23.30;99.90;;;;;;5066925;28;20086;-77
2022/07/23 12:15:24;;;;;;;26.50;24.85;;;23.10;99.90;;;;;;5073099;28;20040;-76
2022/07/23 12:17:52;;;;;;;27.70;25.65;;;23.20;99.90;;;;;;5026781;28;20049;-76
2022/07/23 12:20:23;;;;;;;26.75;25.05;;;23.10;99.90;;;;;;5059237;28;20067;-76
2022/07/23 12:22:52;;;;;;;26.70;25.08;;;23.40;99.90;;;;;;5067250;28;20056;-76
2022/07/23 12:25:22;;;;;;;26.45;24.65;;;23.70;99.90;;;;;;5060511;28;20483;-76
2022/07/23 12:28:08;;;;;;;26.20;24.48;;;23.80;99.90;;;;;;5042173;28;20045;-77
2022/07/23 12:30:41;;;;;;;26.95;25.00;;;24.10;99.90;;;;;;5037355;28;20047;-76
2022/07/23 12:33:10;;;;;;;27.35;25.40;;;24.20;99.90;;;;;;5038309;28;20066;-76
2022/07/23 12:35:41;;;;;;;25.00;22.98;;;24.20;99.90;;;;;;5061793;28;20060;-77
2022/07/23 12:38:13;;;;;;;24.40;22.80;;;24.50;99.90;;;;;;5040770;28;20101;-76
2022/07/23 12:40:54;;;;;;;24.00;22.60;;;24.00;99.90;;;;;;5059353;28;20122;-77
2022/07/23 12:43:21;;;;;;;25.30;23.70;;;24.00;99.90;;;;;;5080911;22;20113;31
2022/07/23 12:45:50;;;;;;;25.67;24.08;;;24.20;99.90;;;;;;5027921;28;20137;-75